createdAt,value
2024-02-17T00:00:59.119Z,68.71
2024-02-17T00:03:25.276Z,69.50
2024-02-17T00:05:51.661Z,69.34
2024-02-17T00:08:17.896Z,69.57
2024-02-17T00:10:44.190Z,69.92
2024-02-17T00:13:10.221Z,70.24
2024-02-17T00:15:36.100Z,70.57
2024-02-17T00:18:04.093Z,70.77
2024-02-17T00:20:30.029Z,70.07
2024-02-17T00:22:55.873Z,69.64
2024-02-17T00:25:21.663Z,70.25
2024-02-17T00:27:47.569Z,70.46
2024-02-17T00:30:15.858Z,69.94
2024-02-17T00:32:42.128Z,69.82
2024-02-17T00:35:11.275Z,69.94
2024-02-17T00:37:36.980Z,70.15
2024-02-17T00:40:05.714Z,70.46
2024-02-17T00:42:31.614Z,70.23
2024-02-17T00:44:57.481Z,70.60
2024-02-17T00:47:23.296Z,71.45
2024-02-17T00:49:49.447Z,71.49
2024-02-17T00:52:15.327Z,71.09
2024-02-17T00:54:41.311Z,70.58
2024-02-17T00:57:07.207Z,70.20
2024-02-17T00:59:34.091Z,70.33
2024-02-17T01:02:01.716Z,70.52
2024-02-17T01:04:27.681Z,70.58
2024-02-17T01:06:53.640Z,70.96
2024-02-17T01:09:19.554Z,70.93
2024-02-17T01:11:45.466Z,71.38
2024-02-17T01:14:11.278Z,71.74
2024-02-17T01:16:37.140Z,71.46
2024-02-17T01:19:03.181Z,70.72
2024-02-17T01:21:31.583Z,70.49
2024-02-17T01:23:58.560Z,70.41
2024-02-17T01:26:24.712Z,70.37
2024-02-17T01:28:50.728Z,70.91
2024-02-17T01:31:16.570Z,70.11
2024-02-17T01:33:42.365Z,70.08
2024-02-17T01:36:15.535Z,70.49
2024-02-17T01:38:41.398Z,70.33
2024-02-17T01:41:07.307Z,70.56
2024-02-17T01:43:33.166Z,70.81
2024-02-17T01:45:59.089Z,70.58
2024-02-17T01:48:25.217Z,70.57
2024-02-17T01:50:51.860Z,69.87
2024-02-17T01:53:17.993Z,69.98
2024-02-17T01:55:44.066Z,70.31
2024-02-17T01:58:11.168Z,70.50
2024-02-17T02:00:38.380Z,70.33
2024-02-17T02:03:05.155Z,71.08
2024-02-17T02:05:31.727Z,71.25
2024-02-17T02:07:57.640Z,71.76
2024-02-17T02:10:23.492Z,71.43
2024-02-17T02:12:49.512Z,70.95
2024-02-17T02:15:15.751Z,70.30
2024-02-17T02:17:42.193Z,70.26
2024-02-17T02:20:10.896Z,70.61
2024-02-17T02:22:36.903Z,71.04
2024-02-17T02:25:05.928Z,71.05
2024-02-17T02:27:31.913Z,70.92
2024-02-17T02:29:59.269Z,71.11
2024-02-17T02:32:28.499Z,70.93
2024-02-17T02:34:54.928Z,70.84
2024-02-17T02:37:21.078Z,70.88
2024-02-17T02:39:47.204Z,70.97
2024-02-17T02:42:13.109Z,70.96
2024-02-17T02:44:38.960Z,71.53
2024-02-17T02:47:04.867Z,71.12
2024-02-17T02:49:30.846Z,71.25
2024-02-17T02:51:56.805Z,71.63
2024-02-17T02:54:22.701Z,71.78
2024-02-17T02:56:48.934Z,71.41
2024-02-17T02:59:14.794Z,71.56
2024-02-17T03:01:40.767Z,70.95
2024-02-17T03:04:06.836Z,70.73
2024-02-17T03:06:32.836Z,71.51
2024-02-17T03:08:59.081Z,70.79
2024-02-17T03:11:24.920Z,71.01
2024-02-17T03:13:51.313Z,71.24
2024-02-17T03:16:26.669Z,71.36
2024-02-17T03:18:53.595Z,70.91
2024-02-17T03:21:19.645Z,71.04
2024-02-17T03:23:46.071Z,70.89
2024-02-17T03:26:12.244Z,71.07
2024-02-17T03:28:38.240Z,71.47
2024-02-17T03:31:05.194Z,71.57
2024-02-17T03:33:31.365Z,71.48
2024-02-17T03:35:57.353Z,71.00
2024-02-17T03:38:23.281Z,70.54
2024-02-17T03:40:49.228Z,71.01
2024-02-17T03:43:15.056Z,71.21
2024-02-17T03:45:41.024Z,71.74
2024-02-17T03:48:07.647Z,71.13
2024-02-17T03:50:33.615Z,70.79
2024-02-17T03:52:59.515Z,71.04
2024-02-17T03:55:25.417Z,71.23
2024-02-17T03:57:51.314Z,71.82
2024-02-17T04:00:17.409Z,70.75
2024-02-17T04:02:43.391Z,70.98
2024-02-17T04:05:09.371Z,71.32
2024-02-17T04:07:35.449Z,71.25
2024-02-17T04:10:01.961Z,71.40
2024-02-17T04:12:27.931Z,71.78
2024-02-17T04:14:53.744Z,71.11
2024-02-17T04:17:19.601Z,71.26
2024-02-17T04:19:45.719Z,70.98
2024-02-17T04:22:11.650Z,70.67
2024-02-17T04:24:37.613Z,71.26
2024-02-17T04:27:03.911Z,71.84
2024-02-17T04:29:29.761Z,71.09
2024-02-17T04:31:57.646Z,70.36
2024-02-17T04:34:23.825Z,70.84
2024-02-17T04:36:49.772Z,70.87
2024-02-17T04:39:15.724Z,71.11
2024-02-17T04:41:41.617Z,71.34
2024-02-17T04:44:07.494Z,72.16
2024-02-17T04:46:33.414Z,71.56
2024-02-17T04:48:59.496Z,71.46
2024-02-17T04:51:25.571Z,71.20
2024-02-17T04:53:52.559Z,70.79
2024-02-17T04:56:18.701Z,70.82
2024-02-17T04:58:45.598Z,70.86
2024-02-17T05:01:11.654Z,70.92
2024-02-17T05:03:37.667Z,71.35
2024-02-17T05:06:04.457Z,71.82
2024-02-17T05:08:31.017Z,72.11
2024-02-17T05:10:58.264Z,71.82
2024-02-17T05:13:24.240Z,71.50
2024-02-17T05:15:50.624Z,71.15
2024-02-17T05:18:17.076Z,70.87
2024-02-17T05:20:43.015Z,71.13
2024-02-17T05:23:08.892Z,71.35
2024-02-17T05:25:34.759Z,71.13
2024-02-17T05:28:00.664Z,71.44
2024-02-17T05:30:26.701Z,72.05
2024-02-17T05:32:53.014Z,71.54
2024-02-17T05:35:18.980Z,71.10
2024-02-17T05:37:44.926Z,71.42
2024-02-17T05:40:12.384Z,71.89
2024-02-17T05:42:38.779Z,71.78
2024-02-17T05:45:05.221Z,71.04
2024-02-17T05:47:31.270Z,71.26
2024-02-17T05:49:57.780Z,71.48
2024-02-17T05:52:23.700Z,71.74
2024-02-17T05:54:49.608Z,71.83
2024-02-17T05:57:15.533Z,71.54
2024-02-17T05:59:41.388Z,71.41
2024-02-17T06:02:07.271Z,70.65
2024-02-17T06:04:33.143Z,70.71
2024-02-17T06:06:59.055Z,70.94
2024-02-17T06:09:25.001Z,71.30
2024-02-17T06:11:50.859Z,71.48
2024-02-17T06:14:16.874Z,71.20
2024-02-17T06:16:42.764Z,72.05
2024-02-17T06:19:27.367Z,72.08
2024-02-17T06:21:55.918Z,71.53
2024-02-17T06:24:21.880Z,71.87
2024-02-17T06:26:47.697Z,71.96
2024-02-17T06:29:13.828Z,72.08
2024-02-17T06:31:40.946Z,72.42
2024-02-17T06:34:07.690Z,72.69
2024-02-17T06:36:34.283Z,73.02
2024-02-17T06:39:00.382Z,72.72
2024-02-17T06:41:27.341Z,73.47
2024-02-17T06:43:53.169Z,73.15
2024-02-17T06:46:19.103Z,72.87
2024-02-17T06:48:45.379Z,72.51
2024-02-17T06:51:12.094Z,72.86
2024-02-17T06:53:38.282Z,72.84
2024-02-17T06:56:04.905Z,73.20
2024-02-17T06:58:30.778Z,73.22
2024-02-17T07:00:56.619Z,73.55
2024-02-17T07:03:22.482Z,72.92
2024-02-17T07:05:48.428Z,73.19
2024-02-17T07:08:14.705Z,73.30
2024-02-17T07:10:40.503Z,73.80
2024-02-17T07:13:12.897Z,73.54
2024-02-17T07:15:38.796Z,73.24
2024-02-17T07:18:05.000Z,73.00
2024-02-17T07:20:32.815Z,73.71
2024-02-17T07:22:59.843Z,72.58
2024-02-17T07:25:29.760Z,72.73
2024-02-17T07:27:59.693Z,73.54
2024-02-17T07:30:28.178Z,73.32
2024-02-17T07:32:54.717Z,72.32
2024-02-17T07:35:22.223Z,72.37
2024-02-17T07:37:48.095Z,72.16
2024-02-17T07:40:14.171Z,71.97
2024-02-17T07:42:40.004Z,71.62
2024-02-17T07:45:06.402Z,71.74
2024-02-17T07:47:35.525Z,71.21
2024-02-17T07:50:04.852Z,71.06
2024-02-17T07:52:31.700Z,70.60
2024-02-17T07:54:57.568Z,70.28
2024-02-17T07:57:23.481Z,70.01
2024-02-17T07:59:49.341Z,70.17
2024-02-17T08:02:15.176Z,70.08
2024-02-17T08:04:43.106Z,70.36
2024-02-17T08:07:09.527Z,69.28
2024-02-17T08:09:35.441Z,69.25
2024-02-17T08:12:01.469Z,69.16
2024-02-17T08:14:29.619Z,68.65
2024-02-17T08:16:56.553Z,68.16
2024-02-17T08:19:22.559Z,67.12
2024-02-17T08:21:48.561Z,65.57
2024-02-17T08:24:14.468Z,64.27
2024-02-17T08:26:40.327Z,64.13
2024-02-17T08:29:06.135Z,63.73
2024-02-17T08:31:31.987Z,62.57
2024-02-17T08:33:58.015Z,62.01
2024-02-17T08:36:24.000Z,61.76
2024-02-17T08:38:50.787Z,61.28
2024-02-17T08:41:19.918Z,61.21
2024-02-17T08:43:48.085Z,61.17
2024-02-17T08:46:14.280Z,61.16
2024-02-17T08:48:40.503Z,61.10
2024-02-17T08:51:08.835Z,61.08
2024-02-17T08:53:35.471Z,60.59
2024-02-17T08:56:01.373Z,59.88
2024-02-17T08:58:27.268Z,59.82
2024-02-17T09:00:53.284Z,59.21
2024-02-17T09:03:19.221Z,58.35
2024-02-17T09:05:45.504Z,57.34
2024-02-17T09:08:11.320Z,57.26
2024-02-17T09:10:37.220Z,56.88
2024-02-17T09:13:03.161Z,56.55
2024-02-17T09:15:29.089Z,56.03
2024-02-17T09:17:55.049Z,55.47
2024-02-17T09:20:20.972Z,55.22
2024-02-17T09:22:46.890Z,55.17
2024-02-17T09:25:12.853Z,55.35
2024-02-17T09:27:38.931Z,55.07
2024-02-17T09:30:06.187Z,55.40
2024-02-17T09:32:32.200Z,54.64
2024-02-17T09:34:58.225Z,54.04
2024-02-17T09:37:24.259Z,54.43
2024-02-17T09:39:50.210Z,54.10
2024-02-17T09:42:16.152Z,53.65
2024-02-17T09:44:42.832Z,53.86
2024-02-17T09:47:08.771Z,52.58
2024-02-17T09:49:39.491Z,52.61
2024-02-17T09:52:06.698Z,52.29
2024-02-17T09:54:34.203Z,51.75
2024-02-17T09:57:01.174Z,52.00
2024-02-17T09:59:27.243Z,51.72
2024-02-17T10:01:53.129Z,50.54
2024-02-17T10:04:20.379Z,50.64
2024-02-17T10:06:58.896Z,50.63
2024-02-17T10:09:27.430Z,49.75
2024-02-17T10:11:54.339Z,49.29
2024-02-17T10:14:24.069Z,48.44
2024-02-17T10:16:57.794Z,48.09
2024-02-17T10:19:23.759Z,47.22
2024-02-17T10:21:49.749Z,47.77
2024-02-17T10:24:15.729Z,47.25
2024-02-17T10:26:42.497Z,46.27
2024-02-17T10:29:08.626Z,46.62
2024-02-17T10:31:34.501Z,46.73
2024-02-17T10:34:00.519Z,46.60
2024-02-17T10:36:26.763Z,46.03
2024-02-17T10:38:54.855Z,46.31
2024-02-17T10:41:22.594Z,45.44
2024-02-17T10:43:48.802Z,44.96
2024-02-17T10:46:27.192Z,45.28
2024-02-17T10:49:34.561Z,45.83
2024-02-17T10:52:05.493Z,45.73
2024-02-17T10:54:43.783Z,45.41
2024-02-17T10:57:13.763Z,45.29
2024-02-17T10:59:44.417Z,44.70
2024-02-17T11:02:15.831Z,44.59
2024-02-17T11:04:43.930Z,44.77
2024-02-17T11:07:11.756Z,44.63
2024-02-17T11:09:37.740Z,45.16
2024-02-17T11:12:35.774Z,44.87
2024-02-17T11:15:09.186Z,44.85
2024-02-17T11:17:40.936Z,45.60
2024-02-17T11:20:12.584Z,45.29
2024-02-17T11:22:42.837Z,45.66
2024-02-17T11:25:10.473Z,45.00
2024-02-17T11:27:37.461Z,44.72
2024-02-17T11:30:06.255Z,44.61
2024-02-17T11:32:32.191Z,44.70
2024-02-17T11:35:00.120Z,44.18
2024-02-17T11:37:28.191Z,44.56
2024-02-17T11:39:54.321Z,44.98
2024-02-17T11:42:23.114Z,46.06
2024-02-17T11:44:48.970Z,45.05
2024-02-17T11:47:15.084Z,44.78
2024-02-17T11:49:41.063Z,44.80
2024-02-17T11:52:07.963Z,44.44
2024-02-17T11:54:35.285Z,43.84
2024-02-17T11:57:02.703Z,44.48
2024-02-17T11:59:29.137Z,44.18
2024-02-17T12:01:55.493Z,43.98
2024-02-17T12:04:22.714Z,43.75
2024-02-17T12:06:48.674Z,44.01
2024-02-17T12:09:15.532Z,44.92
2024-02-17T12:11:41.716Z,44.42
2024-02-17T12:14:09.586Z,44.36
2024-02-17T12:16:36.271Z,44.34
2024-02-17T12:19:12.285Z,44.39
2024-02-17T12:21:38.883Z,44.12
2024-02-17T12:24:06.761Z,44.53
2024-02-17T12:26:45.052Z,44.53
2024-02-17T12:29:14.486Z,44.27
2024-02-17T12:31:42.669Z,43.99
2024-02-17T12:34:08.676Z,44.06
2024-02-17T12:36:35.264Z,44.32
2024-02-17T12:39:08.808Z,44.13
2024-02-17T12:41:34.713Z,44.54
2024-02-17T12:44:02.374Z,44.72
2024-02-17T12:46:28.895Z,45.33
2024-02-17T12:48:56.360Z,44.86
2024-02-17T12:51:24.118Z,45.53
2024-02-17T12:53:51.070Z,45.52
2024-02-17T12:56:18.024Z,44.95
2024-02-17T12:58:45.095Z,45.26
2024-02-17T13:01:10.987Z,46.08
2024-02-17T13:03:38.114Z,45.93
2024-02-17T13:06:06.634Z,45.13
2024-02-17T13:08:33.104Z,45.31
2024-02-17T13:10:59.716Z,45.70
2024-02-17T13:13:26.282Z,45.36
2024-02-17T13:15:52.379Z,45.47
2024-02-17T13:18:18.411Z,46.49
2024-02-17T13:20:44.967Z,46.95
2024-02-17T13:23:11.195Z,46.56
2024-02-17T13:25:37.017Z,47.24
2024-02-17T13:28:03.135Z,47.49
2024-02-17T13:30:29.164Z,47.44
2024-02-17T13:32:55.193Z,47.33
2024-02-17T13:35:21.248Z,47.89
2024-02-17T13:37:47.354Z,48.33
2024-02-17T13:40:18.215Z,48.66
2024-02-17T13:42:44.733Z,48.44
2024-02-17T13:45:13.604Z,48.34
2024-02-17T13:47:40.528Z,48.82
2024-02-17T13:50:08.216Z,49.38
2024-02-17T13:52:34.553Z,50.68
2024-02-17T13:55:01.464Z,51.49
2024-02-17T13:57:34.700Z,53.45
2024-02-17T14:00:03.865Z,54.71
2024-02-17T14:02:30.471Z,55.14
2024-02-17T14:05:05.890Z,56.04
2024-02-17T14:07:33.388Z,56.25
2024-02-17T14:09:59.406Z,57.24
2024-02-17T14:12:25.409Z,57.82
2024-02-17T14:14:51.444Z,58.54
2024-02-17T14:17:17.428Z,59.05
2024-02-17T14:19:46.275Z,58.97
2024-02-17T14:22:13.768Z,59.75
2024-02-17T14:24:40.097Z,59.95
2024-02-17T14:27:06.284Z,59.86
2024-02-17T14:29:38.430Z,60.33
2024-02-17T14:32:05.076Z,61.27
2024-02-17T14:34:31.753Z,61.42
2024-02-17T14:37:01.391Z,62.21
2024-02-17T14:39:27.810Z,63.05
2024-02-17T14:41:54.182Z,64.05
2024-02-17T14:44:20.740Z,64.35
2024-02-17T14:46:47.856Z,64.87
2024-02-17T14:49:14.164Z,64.52
2024-02-17T14:51:40.377Z,64.49
2024-02-17T14:54:06.652Z,64.63
2024-02-17T14:56:32.493Z,65.63
2024-02-17T14:58:58.818Z,66.49
2024-02-17T15:01:24.749Z,66.92
2024-02-17T15:03:50.866Z,66.72
2024-02-17T15:06:16.932Z,66.60
2024-02-17T15:08:44.024Z,66.84
2024-02-17T15:11:10.023Z,67.38
2024-02-17T15:13:36.499Z,67.63
2024-02-17T15:16:02.502Z,68.18
2024-02-17T15:18:28.992Z,68.19
2024-02-17T15:20:55.702Z,68.78
2024-02-17T15:23:21.833Z,68.92
2024-02-17T15:25:48.686Z,69.23
2024-02-17T15:28:18.448Z,69.48
2024-02-17T15:30:47.674Z,69.81
2024-02-17T15:33:14.657Z,69.52
2024-02-17T15:35:42.571Z,69.64
2024-02-17T15:38:13.279Z,69.68
2024-02-17T15:40:39.640Z,69.89
2024-02-17T15:43:05.662Z,69.61
2024-02-17T15:45:31.782Z,69.32
2024-02-17T15:47:58.358Z,69.27
2024-02-17T15:50:27.958Z,69.55
2024-02-17T15:52:54.357Z,69.19
2024-02-17T15:55:20.977Z,69.48
2024-02-17T15:57:52.381Z,69.34
2024-02-17T16:00:22.038Z,68.84
2024-02-17T16:02:49.128Z,69.08
2024-02-17T16:05:15.795Z,69.26
2024-02-17T16:07:41.663Z,69.56
2024-02-17T16:10:10.127Z,69.33
2024-02-17T16:12:36.969Z,69.50
2024-02-17T16:15:07.780Z,69.64
2024-02-17T16:17:34.127Z,70.20
2024-02-17T16:20:02.037Z,70.88
2024-02-17T16:22:28.069Z,70.78
2024-02-17T16:24:53.931Z,70.88
2024-02-17T16:27:19.978Z,71.70
2024-02-17T16:29:45.987Z,71.67
2024-02-17T16:32:11.882Z,71.85
2024-02-17T16:34:37.824Z,72.35
2024-02-17T16:37:04.043Z,72.37
2024-02-17T16:39:32.890Z,72.34
2024-02-17T16:42:00.460Z,72.51
2024-02-17T16:44:26.269Z,72.94
2024-02-17T16:46:55.061Z,72.42
2024-02-17T16:49:21.215Z,72.26
2024-02-17T16:51:54.897Z,72.05
2024-02-17T16:54:21.645Z,72.06
2024-02-17T16:56:47.589Z,71.57
2024-02-17T16:59:14.147Z,71.90
2024-02-17T17:01:40.119Z,71.69
2024-02-17T17:04:06.237Z,72.07
2024-02-17T17:06:32.647Z,71.85
2024-02-17T17:08:58.927Z,71.84
2024-02-17T17:11:25.937Z,71.67
2024-02-17T17:13:53.549Z,71.39
2024-02-17T17:16:19.504Z,70.89
2024-02-17T17:18:45.809Z,71.45
2024-02-17T17:21:13.562Z,71.50
2024-02-17T17:23:39.492Z,71.24
2024-02-17T17:26:05.567Z,71.67
2024-02-17T17:28:31.570Z,71.56
2024-02-17T17:30:57.578Z,71.24
2024-02-17T17:33:23.643Z,71.22
2024-02-17T17:35:50.307Z,71.69
2024-02-17T17:38:16.144Z,71.24
2024-02-17T17:40:42.047Z,71.45
2024-02-17T17:43:08.114Z,70.95
2024-02-17T17:45:34.072Z,71.23
2024-02-17T17:48:00.036Z,71.67
2024-02-17T17:50:26.822Z,70.99
2024-02-17T17:52:53.809Z,71.26
2024-02-17T17:55:20.507Z,71.01
2024-02-17T17:57:46.578Z,71.56
2024-02-17T18:00:18.745Z,71.40
2024-02-17T18:02:46.760Z,71.60
2024-02-17T18:05:13.689Z,71.53
2024-02-17T18:07:40.082Z,71.58
2024-02-17T18:10:07.560Z,71.79
2024-02-17T18:12:33.488Z,72.19
2024-02-17T18:15:01.270Z,72.41
2024-02-17T18:17:27.176Z,72.69
2024-02-17T18:19:54.118Z,72.81
2024-02-17T18:22:21.645Z,72.83
2024-02-17T18:24:47.933Z,72.99
2024-02-17T18:27:14.132Z,72.36
2024-02-17T18:29:40.046Z,71.92
2024-02-17T18:32:06.225Z,72.01
2024-02-17T18:34:32.149Z,71.97
2024-02-17T18:36:58.451Z,71.71
2024-02-17T18:39:24.396Z,71.99
2024-02-17T18:41:50.923Z,71.74
2024-02-17T18:44:17.337Z,71.92
2024-02-17T18:46:45.690Z,71.50
2024-02-17T18:49:11.695Z,71.76
2024-02-17T18:51:45.303Z,71.92
2024-02-17T18:54:11.541Z,71.78
2024-02-17T18:56:37.577Z,72.06
2024-02-17T18:59:03.538Z,71.86
2024-02-17T19:01:29.791Z,72.15
2024-02-17T19:03:55.833Z,72.22
2024-02-17T19:06:22.303Z,72.92
2024-02-17T19:08:48.658Z,72.87
2024-02-17T19:11:14.788Z,73.29
2024-02-17T19:13:40.875Z,73.51
2024-02-17T19:16:08.052Z,73.36
2024-02-17T19:18:34.391Z,72.49
2024-02-17T19:21:00.370Z,72.27
2024-02-17T19:23:28.961Z,71.70
2024-02-17T19:25:54.886Z,71.63
2024-02-17T19:28:20.730Z,71.33
2024-02-17T19:30:46.699Z,71.30
2024-02-17T19:33:12.662Z,71.42
2024-02-17T19:35:39.373Z,72.18
2024-02-17T19:38:05.339Z,71.98
2024-02-17T19:40:34.857Z,72.04
2024-02-17T19:43:01.504Z,71.83
2024-02-17T19:45:27.489Z,71.58
2024-02-17T19:47:53.558Z,71.43
2024-02-17T19:50:19.486Z,71.20
2024-02-17T19:52:45.353Z,71.84
2024-02-17T19:55:11.843Z,71.48
2024-02-17T19:57:38.895Z,71.17
2024-02-17T20:00:06.023Z,70.64
2024-02-17T20:02:34.137Z,70.71
2024-02-17T20:05:00.857Z,70.46
2024-02-17T20:07:28.091Z,70.65
2024-02-17T20:09:54.385Z,70.94
2024-02-17T20:12:25.404Z,71.35
2024-02-17T20:14:53.445Z,71.31
2024-02-17T20:17:24.610Z,72.39
2024-02-17T20:19:55.224Z,72.63
2024-02-17T20:22:21.207Z,72.35
2024-02-17T20:24:48.227Z,72.12
2024-02-17T20:27:14.076Z,72.11
2024-02-17T20:29:39.906Z,73.11
2024-02-17T20:32:05.970Z,72.48
2024-02-17T20:34:32.060Z,72.17
2024-02-17T20:36:58.946Z,72.90
2024-02-17T20:39:25.184Z,72.57
2024-02-17T20:41:53.898Z,72.05
2024-02-17T20:44:24.444Z,71.96
2024-02-17T20:46:51.864Z,73.24
2024-02-17T20:49:18.365Z,74.29
2024-02-17T20:51:44.440Z,74.26
2024-02-17T20:54:11.830Z,74.76
2024-02-17T20:56:37.836Z,75.07
2024-02-17T20:59:13.424Z,74.68
2024-02-17T21:01:46.799Z,75.39
2024-02-17T21:04:12.711Z,75.29
2024-02-17T21:06:38.772Z,76.33
2024-02-17T21:09:07.673Z,76.21
2024-02-17T21:11:36.497Z,76.24
2024-02-17T21:14:02.741Z,76.36
2024-02-17T21:16:28.834Z,76.59
2024-02-17T21:18:54.866Z,76.69
2024-02-17T21:21:27.926Z,76.98
2024-02-17T21:23:54.868Z,76.96
2024-02-17T21:26:20.724Z,76.88
2024-02-17T21:28:46.959Z,76.97
2024-02-17T21:31:15.083Z,77.27
2024-02-17T21:33:41.958Z,77.06
2024-02-17T21:36:07.948Z,77.33
2024-02-17T21:38:33.863Z,77.21
2024-02-17T21:40:59.759Z,76.85
2024-02-17T21:43:25.590Z,76.87
2024-02-17T21:45:52.711Z,76.95
2024-02-17T21:48:18.822Z,76.71
2024-02-17T21:50:44.892Z,76.85
2024-02-17T21:53:10.841Z,76.60
2024-02-17T21:55:39.311Z,76.14
2024-02-17T21:58:06.009Z,76.01
2024-02-17T22:00:31.941Z,76.34
2024-02-17T22:02:57.888Z,76.72
2024-02-17T22:05:23.816Z,76.91
2024-02-17T22:07:49.643Z,76.76
2024-02-17T22:10:15.581Z,76.07
2024-02-17T22:12:41.438Z,75.96
2024-02-17T22:15:08.314Z,76.05
2024-02-17T22:17:34.235Z,76.32
2024-02-17T22:20:00.325Z,76.38
2024-02-17T22:22:26.321Z,76.22
2024-02-17T22:24:52.217Z,75.96
2024-02-17T22:27:18.092Z,76.15
2024-02-17T22:29:43.962Z,75.77
2024-02-17T22:32:09.919Z,75.25
2024-02-17T22:34:35.920Z,74.67
2024-02-17T22:37:01.992Z,74.54
2024-02-17T22:39:28.059Z,74.23
2024-02-17T22:41:55.565Z,73.99
2024-02-17T22:44:21.706Z,73.85
2024-02-17T22:46:47.928Z,73.70
2024-02-17T22:49:13.850Z,74.35
2024-02-17T22:51:42.123Z,74.55
2024-02-17T22:54:08.517Z,74.88
2024-02-17T22:56:35.404Z,74.94
2024-02-17T22:59:02.282Z,75.04
2024-02-17T23:01:28.359Z,74.98
2024-02-17T23:03:54.454Z,75.08
2024-02-17T23:06:20.786Z,74.93
2024-02-17T23:08:47.199Z,74.57
2024-02-17T23:11:16.239Z,74.72
2024-02-17T23:13:42.165Z,74.47
2024-02-17T23:16:08.162Z,74.23
2024-02-17T23:18:35.040Z,74.22
2024-02-17T23:21:01.051Z,74.04
2024-02-17T23:23:27.313Z,74.34
2024-02-17T23:25:53.171Z,74.49
2024-02-17T23:28:19.026Z,75.06
2024-02-17T23:30:45.758Z,75.00
2024-02-17T23:33:11.632Z,75.36
2024-02-17T23:35:38.195Z,75.20
2024-02-17T23:38:04.012Z,75.69
2024-02-17T23:40:30.512Z,74.98
2024-02-17T23:42:56.407Z,74.72
2024-02-17T23:45:22.908Z,74.19
2024-02-17T23:47:48.941Z,74.04
2024-02-17T23:50:14.999Z,74.21
2024-02-17T23:52:40.935Z,74.38
2024-02-17T23:55:08.859Z,74.22
2024-02-17T23:57:35.584Z,73.56
